sensor_id;sensor_type;location;lat;lon;timestamp;P1;durP1;ratioP1;P2;durP2;ratioP2
30888;SDS011;51092;50.874;7.024;2023-06-22T00:00:48;9.77;;;5.97;;
30888;SDS011;51092;50.874;7.024;2023-06-22T00:01:50;7.13;;;5.30;;
30888;SDS011;51092;50.874;7.024;2023-06-22T00:02:53;6.03;;;5.28;;
30888;SDS011;51092;50.874;7.024;2023-06-22T00:03:54;6.72;;;5.50;;
30888;SDS011;51092;50.874;7.024;2023-06-22T00:04:58;7.40;;;6.20;;
30888;SDS011;51092;50.874;7.024;2023-06-22T00:05:59;5.93;;;5.35;;
30888;SDS011;51092;50.874;7.024;2023-06-22T00:07:02;8.13;;;5.60;;
30888;SDS011;51092;50.874;7.024;2023-06-22T00:08:04;7.63;;;5.75;;
30888;SDS011;51092;50.874;7.024;2023-06-22T00:09:06;7.90;;;5.90;;
30888;SDS011;51092;50.874;7.024;2023-06-22T00:10:08;7.45;;;5.63;;
30888;SDS011;51092;50.874;7.024;2023-06-22T00:11:11;5.88;;;5.30;;
30888;SDS011;51092;50.874;7.024;2023-06-22T00:12:12;9.20;;;5.82;;
30888;SDS011;51092;50.874;7.024;2023-06-22T00:13:15;7.22;;;5.38;;
30888;SDS011;51092;50.874;7.024;2023-06-22T00:14:18;7.72;;;6.05;;
30888;SDS011;51092;50.874;7.024;2023-06-22T00:15:20;6.38;;;5.70;;
30888;SDS011;51092;50.874;7.024;2023-06-22T00:16:22;7.93;;;6.22;;
30888;SDS011;51092;50.874;7.024;2023-06-22T00:17:24;7.10;;;5.90;;
30888;SDS011;51092;50.874;7.024;2023-06-22T00:18:25;10.30;;;5.85;;
30888;SDS011;51092;50.874;7.024;2023-06-22T00:19:28;9.60;;;6.65;;
30888;SDS011;51092;50.874;7.024;2023-06-22T00:20:31;9.52;;;5.72;;
30888;SDS011;51092;50.874;7.024;2023-06-22T00:21:37;8.23;;;6.10;;
30888;SDS011;51092;50.874;7.024;2023-06-22T00:22:39;6.85;;;5.65;;
30888;SDS011;51092;50.874;7.024;2023-06-22T00:23:41;6.00;;;5.47;;
30888;SDS011;51092;50.874;7.024;2023-06-22T00:24:44;7.07;;;6.38;;
30888;SDS011;51092;50.874;7.024;2023-06-22T00:25:47;6.38;;;5.65;;
30888;SDS011;51092;50.874;7.024;2023-06-22T00:26:50;7.57;;;6.20;;
30888;SDS011;51092;50.874;7.024;2023-06-22T00:27:52;9.60;;;5.82;;
30888;SDS011;51092;50.874;7.024;2023-06-22T00:28:54;9.38;;;5.90;;
30888;SDS011;51092;50.874;7.024;2023-06-22T00:29:56;8.65;;;6.15;;
30888;SDS011;51092;50.874;7.024;2023-06-22T00:30:57;6.32;;;5.70;;
30888;SDS011;51092;50.874;7.024;2023-06-22T00:32:01;9.23;;;5.72;;
30888;SDS011;51092;50.874;7.024;2023-06-22T00:33:02;10.80;;;6.40;;
30888;SDS011;51092;50.874;7.024;2023-06-22T00:34:08;7.18;;;5.25;;
30888;SDS011;51092;50.874;7.024;2023-06-22T00:35:10;6.72;;;5.78;;
30888;SDS011;51092;50.874;7.024;2023-06-22T00:36:14;7.18;;;5.70;;
30888;SDS011;51092;50.874;7.024;2023-06-22T00:37:18;7.53;;;5.43;;
30888;SDS011;51092;50.874;7.024;2023-06-22T00:38:20;8.50;;;6.40;;
30888;SDS011;51092;50.874;7.024;2023-06-22T00:39:22;6.57;;;5.55;;
30888;SDS011;51092;50.874;7.024;2023-06-22T00:40:22;10.50;;;5.97;;
30888;SDS011;51092;50.874;7.024;2023-06-22T00:41:24;6.95;;;5.88;;
30888;SDS011;51092;50.874;7.024;2023-06-22T00:42:28;6.63;;;6.00;;
30888;SDS011;51092;50.874;7.024;2023-06-22T00:43:31;9.98;;;5.90;;
30888;SDS011;51092;50.874;7.024;2023-06-22T00:44:33;7.80;;;6.28;;
30888;SDS011;51092;50.874;7.024;2023-06-22T00:45:35;8.23;;;6.38;;
30888;SDS011;51092;50.874;7.024;2023-06-22T00:46:37;6.80;;;5.47;;
30888;SDS011;51092;50.874;7.024;2023-06-22T00:47:40;7.35;;;6.05;;
30888;SDS011;51092;50.874;7.024;2023-06-22T00:48:43;5.88;;;5.28;;
30888;SDS011;51092;50.874;7.024;2023-06-22T00:49:47;7.22;;;6.20;;
30888;SDS011;51092;50.874;7.024;2023-06-22T00:50:51;7.50;;;6.10;;
30888;SDS011;51092;50.874;7.024;2023-06-22T00:51:58;7.38;;;5.80;;
30888;SDS011;51092;50.874;7.024;2023-06-22T00:53:00;6.40;;;5.75;;
30888;SDS011;51092;50.874;7.024;2023-06-22T00:54:08;5.97;;;5.38;;
30888;SDS011;51092;50.874;7.024;2023-06-22T00:55:11;6.10;;;5.50;;
30888;SDS011;51092;50.874;7.024;2023-06-22T00:56:15;7.95;;;6.57;;
30888;SDS011;51092;50.874;7.024;2023-06-22T00:57:20;7.70;;;6.07;;
30888;SDS011;51092;50.874;7.024;2023-06-22T00:58:22;6.85;;;6.15;;
30888;SDS011;51092;50.874;7.024;2023-06-22T00:59:25;7.07;;;6.38;;
30888;SDS011;51092;50.874;7.024;2023-06-22T01:00:27;10.93;;;6.50;;
30888;SDS011;51092;50.874;7.024;2023-06-22T01:01:29;7.13;;;6.10;;
30888;SDS011;51092;50.874;7.024;2023-06-22T01:02:30;8.50;;;6.43;;
30888;SDS011;51092;50.874;7.024;2023-06-22T01:03:32;6.50;;;5.90;;
30888;SDS011;51092;50.874;7.024;2023-06-22T01:04:34;7.68;;;5.60;;
30888;SDS011;51092;50.874;7.024;2023-06-22T01:05:39;5.82;;;5.32;;
30888;SDS011;51092;50.874;7.024;2023-06-22T01:06:43;7.53;;;6.70;;
30888;SDS011;51092;50.874;7.024;2023-06-22T01:08:08;7.18;;;6.07;;
30888;SDS011;51092;50.874;7.024;2023-06-22T01:09:18;10.43;;;6.30;;
30888;SDS011;51092;50.874;7.024;2023-06-22T01:10:27;7.65;;;5.65;;
30888;SDS011;51092;50.874;7.024;2023-06-22T01:11:34;9.02;;;5.57;;
30888;SDS011;51092;50.874;7.024;2023-06-22T01:12:44;6.90;;;6.20;;
30888;SDS011;51092;50.874;7.024;2023-06-22T01:13:50;6.07;;;5.53;;
30888;SDS011;51092;50.874;7.024;2023-06-22T01:15:02;7.82;;;6.40;;
30888;SDS011;51092;50.874;7.024;2023-06-22T01:16:10;6.80;;;5.95;;
30888;SDS011;51092;50.874;7.024;2023-06-22T01:17:16;9.25;;;6.13;;
30888;SDS011;51092;50.874;7.024;2023-06-22T01:18:19;11.23;;;5.80;;
30888;SDS011;51092;50.874;7.024;2023-06-22T01:19:29;7.10;;;5.93;;
30888;SDS011;51092;50.874;7.024;2023-06-22T01:20:36;7.00;;;6.30;;
30888;SDS011;51092;50.874;7.024;2023-06-22T01:21:40;7.35;;;6.32;;
30888;SDS011;51092;50.874;7.024;2023-06-22T01:22:48;8.25;;;5.75;;
30888;SDS011;51092;50.874;7.024;2023-06-22T01:24:11;6.68;;;6.07;;
30888;SDS011;51092;50.874;7.024;2023-06-22T01:25:20;8.57;;;6.40;;
30888;SDS011;51092;50.874;7.024;2023-06-22T01:26:28;7.22;;;6.43;;
30888;SDS011;51092;50.874;7.024;2023-06-22T01:27:40;7.50;;;6.15;;
30888;SDS011;51092;50.874;7.024;2023-06-22T01:28:54;9.32;;;6.15;;
30888;SDS011;51092;50.874;7.024;2023-06-22T01:29:58;7.78;;;6.82;;
30888;SDS011;51092;50.874;7.024;2023-06-22T01:31:02;6.93;;;6.25;;
30888;SDS011;51092;50.874;7.024;2023-06-22T01:32:06;7.03;;;6.03;;
30888;SDS011;51092;50.874;7.024;2023-06-22T01:33:09;6.45;;;5.85;;
30888;SDS011;51092;50.874;7.024;2023-06-22T01:34:13;8.98;;;5.78;;
30888;SDS011;51092;50.874;7.024;2023-06-22T01:35:16;10.55;;;6.25;;
30888;SDS011;51092;50.874;7.024;2023-06-22T01:36:19;8.77;;;6.63;;
30888;SDS011;51092;50.874;7.024;2023-06-22T01:37:22;7.10;;;6.25;;
30888;SDS011;51092;50.874;7.024;2023-06-22T01:38:24;7.38;;;6.68;;
30888;SDS011;51092;50.874;7.024;2023-06-22T01:39:27;7.85;;;6.85;;
30888;SDS011;51092;50.874;7.024;2023-06-22T01:40:29;6.97;;;6.25;;
30888;SDS011;51092;50.874;7.024;2023-06-22T01:41:34;7.32;;;6.60;;
30888;SDS011;51092;50.874;7.024;2023-06-22T01:42:37;18.52;;;7.82;;
30888;SDS011;51092;50.874;7.024;2023-06-22T01:43:40;8.73;;;6.50;;
30888;SDS011;51092;50.874;7.024;2023-06-22T01:44:44;9.70;;;5.97;;
30888;SDS011;51092;50.874;7.024;2023-06-22T01:45:48;6.78;;;6.07;;
30888;SDS011;51092;50.874;7.024;2023-06-22T01:46:50;9.23;;;6.15;;
30888;SDS011;51092;50.874;7.024;2023-06-22T01:47:53;7.65;;;5.95;;
30888;SDS011;51092;50.874;7.024;2023-06-22T01:48:55;11.82;;;6.15;;
30888;SDS011;51092;50.874;7.024;2023-06-22T01:49:58;6.85;;;5.90;;
30888;SDS011;51092;50.874;7.024;2023-06-22T01:51:00;7.45;;;6.30;;
30888;SDS011;51092;50.874;7.024;2023-06-22T01:52:02;8.23;;;6.47;;
30888;SDS011;51092;50.874;7.024;2023-06-22T01:53:04;7.75;;;6.40;;
30888;SDS011;51092;50.874;7.024;2023-06-22T01:54:07;7.35;;;6.65;;
30888;SDS011;51092;50.874;7.024;2023-06-22T01:55:10;10.45;;;6.50;;
30888;SDS011;51092;50.874;7.024;2023-06-22T01:56:11;8.40;;;6.47;;
30888;SDS011;51092;50.874;7.024;2023-06-22T01:57:14;7.35;;;6.13;;
30888;SDS011;51092;50.874;7.024;2023-06-22T01:58:15;9.68;;;5.68;;
30888;SDS011;51092;50.874;7.024;2023-06-22T01:59:20;8.07;;;6.35;;
30888;SDS011;51092;50.874;7.024;2023-06-22T02:00:28;6.72;;;6.03;;
30888;SDS011;51092;50.874;7.024;2023-06-22T02:01:36;6.32;;;5.72;;
30888;SDS011;51092;50.874;7.024;2023-06-22T02:02:43;8.02;;;6.38;;
30888;SDS011;51092;50.874;7.024;2023-06-22T02:03:55;7.27;;;6.17;;
30888;SDS011;51092;50.874;7.024;2023-06-22T02:05:05;6.20;;;5.40;;
30888;SDS011;51092;50.874;7.024;2023-06-22T02:06:13;7.50;;;6.05;;
30888;SDS011;51092;50.874;7.024;2023-06-22T02:07:18;6.97;;;6.28;;
30888;SDS011;51092;50.874;7.024;2023-06-22T02:08:25;7.40;;;6.72;;
30888;SDS011;51092;50.874;7.024;2023-06-22T02:09:31;6.88;;;6.22;;
30888;SDS011;51092;50.874;7.024;2023-06-22T02:10:36;8.60;;;5.93;;
30888;SDS011;51092;50.874;7.024;2023-06-22T02:11:39;10.13;;;6.10;;
30888;SDS011;51092;50.874;7.024;2023-06-22T02:12:44;7.10;;;6.07;;
30888;SDS011;51092;50.874;7.024;2023-06-22T02:13:47;7.57;;;6.00;;
30888;SDS011;51092;50.874;7.024;2023-06-22T02:14:50;8.02;;;6.15;;
30888;SDS011;51092;50.874;7.024;2023-06-22T02:15:54;9.70;;;6.43;;
30888;SDS011;51092;50.874;7.024;2023-06-22T02:16:57;8.07;;;6.47;;
30888;SDS011;51092;50.874;7.024;2023-06-22T02:17:59;7.68;;;6.55;;
30888;SDS011;51092;50.874;7.024;2023-06-22T02:19:02;7.13;;;6.40;;
30888;SDS011;51092;50.874;7.024;2023-06-22T02:20:05;6.90;;;6.20;;
30888;SDS011;51092;50.874;7.024;2023-06-22T02:21:09;8.52;;;6.63;;
30888;SDS011;51092;50.874;7.024;2023-06-22T02:22:11;8.40;;;6.75;;
30888;SDS011;51092;50.874;7.024;2023-06-22T02:23:14;8.82;;;6.47;;
30888;SDS011;51092;50.874;7.024;2023-06-22T02:24:15;8.07;;;6.50;;
30888;SDS011;51092;50.874;7.024;2023-06-22T02:25:18;7.90;;;6.53;;
30888;SDS011;51092;50.874;7.024;2023-06-22T02:26:20;8.15;;;6.05;;
30888;SDS011;51092;50.874;7.024;2023-06-22T02:27:23;6.40;;;5.80;;
30888;SDS011;51092;50.874;7.024;2023-06-22T02:28:24;7.28;;;6.38;;
30888;SDS011;51092;50.874;7.024;2023-06-22T02:29:27;7.93;;;6.38;;
30888;SDS011;51092;50.874;7.024;2023-06-22T02:30:28;8.38;;;6.30;;
30888;SDS011;51092;50.874;7.024;2023-06-22T02:31:32;7.15;;;6.18;;
30888;SDS011;51092;50.874;7.024;2023-06-22T02:32:34;7.38;;;6.05;;
30888;SDS011;51092;50.874;7.024;2023-06-22T02:33:36;5.75;;;4.90;;
30888;SDS011;51092;50.874;7.024;2023-06-22T02:34:38;5.72;;;5.22;;
30888;SDS011;51092;50.874;7.024;2023-06-22T02:35:40;5.97;;;5.47;;
30888;SDS011;51092;50.874;7.024;2023-06-22T02:36:46;8.25;;;5.70;;
30888;SDS011;51092;50.874;7.024;2023-06-22T02:37:52;6.30;;;5.70;;
30888;SDS011;51092;50.874;7.024;2023-06-22T02:38:54;7.80;;;5.70;;
30888;SDS011;51092;50.874;7.024;2023-06-22T02:40:01;6.38;;;5.40;;
30888;SDS011;51092;50.874;7.024;2023-06-22T02:41:04;6.22;;;5.60;;
30888;SDS011;51092;50.874;7.024;2023-06-22T02:42:07;7.75;;;6.30;;
30888;SDS011;51092;50.874;7.024;2023-06-22T02:43:11;6.68;;;5.68;;
30888;SDS011;51092;50.874;7.024;2023-06-22T02:44:13;7.47;;;6.63;;
30888;SDS011;51092;50.874;7.024;2023-06-22T02:45:16;10.40;;;7.28;;
30888;SDS011;51092;50.874;7.024;2023-06-22T02:46:18;7.43;;;6.32;;
30888;SDS011;51092;50.874;7.024;2023-06-22T02:47:22;7.00;;;6.38;;
30888;SDS011;51092;50.874;7.024;2023-06-22T02:48:24;9.30;;;6.45;;
30888;SDS011;51092;50.874;7.024;2023-06-22T02:49:26;7.32;;;6.40;;
30888;SDS011;51092;50.874;7.024;2023-06-22T02:50:28;7.93;;;6.40;;
30888;SDS011;51092;50.874;7.024;2023-06-22T02:51:30;7.05;;;6.40;;
30888;SDS011;51092;50.874;7.024;2023-06-22T02:52:34;6.75;;;6.00;;
30888;SDS011;51092;50.874;7.024;2023-06-22T02:53:36;7.03;;;6.43;;
30888;SDS011;51092;50.874;7.024;2023-06-22T02:54:38;7.32;;;6.50;;
30888;SDS011;51092;50.874;7.024;2023-06-22T02:55:40;7.25;;;5.85;;
30888;SDS011;51092;50.874;7.024;2023-06-22T02:56:42;7.57;;;6.40;;
30888;SDS011;51092;50.874;7.024;2023-06-22T02:57:44;12.30;;;6.72;;
30888;SDS011;51092;50.874;7.024;2023-06-22T02:58:48;9.82;;;6.55;;
30888;SDS011;51092;50.874;7.024;2023-06-22T02:59:50;7.65;;;6.15;;
30888;SDS011;51092;50.874;7.024;2023-06-22T03:00:52;7.32;;;6.43;;
30888;SDS011;51092;50.874;7.024;2023-06-22T03:01:53;7.95;;;7.07;;
30888;SDS011;51092;50.874;7.024;2023-06-22T03:02:57;11.05;;;7.32;;
30888;SDS011;51092;50.874;7.024;2023-06-22T03:03:58;7.63;;;6.03;;
30888;SDS011;51092;50.874;7.024;2023-06-22T03:05:00;9.90;;;6.40;;
30888;SDS011;51092;50.874;7.024;2023-06-22T03:06:02;7.35;;;6.65;;
30888;SDS011;51092;50.874;7.024;2023-06-22T03:07:04;7.65;;;6.55;;
30888;SDS011;51092;50.874;7.024;2023-06-22T03:08:07;7.18;;;6.47;;
30888;SDS011;51092;50.874;7.024;2023-06-22T03:09:08;6.68;;;5.68;;
30888;SDS011;51092;50.874;7.024;2023-06-22T03:10:13;6.95;;;6.28;;
30888;SDS011;51092;50.874;7.024;2023-06-22T03:11:15;7.15;;;6.40;;
30888;SDS011;51092;50.874;7.024;2023-06-22T03:12:17;9.93;;;6.45;;
30888;SDS011;51092;50.874;7.024;2023-06-22T03:13:19;7.40;;;6.47;;
30888;SDS011;51092;50.874;7.024;2023-06-22T03:14:20;6.75;;;5.88;;
30888;SDS011;51092;50.874;7.024;2023-06-22T03:15:22;7.13;;;6.43;;
30888;SDS011;51092;50.874;7.024;2023-06-22T03:16:23;8.65;;;7.35;;
30888;SDS011;51092;50.874;7.024;2023-06-22T03:17:26;8.25;;;6.47;;
30888;SDS011;51092;50.874;7.024;2023-06-22T03:18:28;7.13;;;6.38;;
30888;SDS011;51092;50.874;7.024;2023-06-22T03:19:31;7.57;;;6.35;;
30888;SDS011;51092;50.874;7.024;2023-06-22T03:20:32;8.77;;;6.80;;
30888;SDS011;51092;50.874;7.024;2023-06-22T03:21:35;8.38;;;6.72;;
30888;SDS011;51092;50.874;7.024;2023-06-22T03:22:39;7.35;;;6.20;;
30888;SDS011;51092;50.874;7.024;2023-06-22T03:23:43;8.32;;;6.72;;
30888;SDS011;51092;50.874;7.024;2023-06-22T03:24:44;7.00;;;6.40;;
30888;SDS011;51092;50.874;7.024;2023-06-22T03:25:47;6.72;;;5.70;;
30888;SDS011;51092;50.874;7.024;2023-06-22T03:26:48;8.18;;;6.43;;
30888;SDS011;51092;50.874;7.024;2023-06-22T03:27:51;6.63;;;5.93;;
30888;SDS011;51092;50.874;7.024;2023-06-22T03:28:52;8.48;;;6.63;;
30888;SDS011;51092;50.874;7.024;2023-06-22T03:29:56;8.35;;;7.53;;
30888;SDS011;51092;50.874;7.024;2023-06-22T03:30:58;10.40;;;6.65;;
30888;SDS011;51092;50.874;7.024;2023-06-22T03:31:59;8.40;;;6.75;;
30888;SDS011;51092;50.874;7.024;2023-06-22T03:33:00;8.88;;;7.18;;
30888;SDS011;51092;50.874;7.024;2023-06-22T03:34:04;8.73;;;7.00;;
30888;SDS011;51092;50.874;7.024;2023-06-22T03:35:05;7.63;;;6.82;;
30888;SDS011;51092;50.874;7.024;2023-06-22T03:36:08;7.38;;;6.65;;
30888;SDS011;51092;50.874;7.024;2023-06-22T03:37:10;8.25;;;6.90;;
30888;SDS011;51092;50.874;7.024;2023-06-22T03:38:13;7.80;;;6.85;;
30888;SDS011;51092;50.874;7.024;2023-06-22T03:39:15;7.32;;;6.63;;
30888;SDS011;51092;50.874;7.024;2023-06-22T03:40:17;7.20;;;6.50;;
30888;SDS011;51092;50.874;7.024;2023-06-22T03:41:19;8.00;;;6.35;;
30888;SDS011;51092;50.874;7.024;2023-06-22T03:42:21;7.88;;;6.60;;
30888;SDS011;51092;50.874;7.024;2023-06-22T03:43:23;9.73;;;7.03;;
30888;SDS011;51092;50.874;7.024;2023-06-22T03:44:25;10.25;;;7.28;;
30888;SDS011;51092;50.874;7.024;2023-06-22T03:45:27;9.63;;;7.05;;
30888;SDS011;51092;50.874;7.024;2023-06-22T03:46:29;9.77;;;7.40;;
30888;SDS011;51092;50.874;7.024;2023-06-22T03:47:31;8.25;;;7.38;;
30888;SDS011;51092;50.874;7.024;2023-06-22T03:48:33;8.05;;;7.10;;
30888;SDS011;51092;50.874;7.024;2023-06-22T03:49:37;11.00;;;7.55;;
30888;SDS011;51092;50.874;7.024;2023-06-22T03:50:38;8.43;;;7.63;;
30888;SDS011;51092;50.874;7.024;2023-06-22T03:51:41;7.90;;;7.10;;
30888;SDS011;51092;50.874;7.024;2023-06-22T03:52:42;9.85;;;7.60;;
30888;SDS011;51092;50.874;7.024;2023-06-22T03:53:44;8.00;;;7.20;;
30888;SDS011;51092;50.874;7.024;2023-06-22T03:54:46;9.80;;;8.68;;
30888;SDS011;51092;50.874;7.024;2023-06-22T03:55:49;8.38;;;7.55;;
30888;SDS011;51092;50.874;7.024;2023-06-22T03:56:51;8.65;;;7.85;;
30888;SDS011;51092;50.874;7.024;2023-06-22T03:57:54;9.23;;;8.32;;
30888;SDS011;51092;50.874;7.024;2023-06-22T03:58:57;8.30;;;7.50;;
30888;SDS011;51092;50.874;7.024;2023-06-22T03:59:59;10.15;;;8.13;;
30888;SDS011;51092;50.874;7.024;2023-06-22T04:01:02;9.40;;;8.02;;
30888;SDS011;51092;50.874;7.024;2023-06-22T04:02:04;9.05;;;8.15;;
30888;SDS011;51092;50.874;7.024;2023-06-22T04:03:06;9.48;;;8.35;;
30888;SDS011;51092;50.874;7.024;2023-06-22T04:04:08;9.30;;;8.40;;
30888;SDS011;51092;50.874;7.024;2023-06-22T04:05:11;8.95;;;8.15;;
30888;SDS011;51092;50.874;7.024;2023-06-22T04:06:13;11.95;;;9.10;;
30888;SDS011;51092;50.874;7.024;2023-06-22T04:07:16;10.65;;;8.90;;
30888;SDS011;51092;50.874;7.024;2023-06-22T04:08:18;12.00;;;8.65;;
30888;SDS011;51092;50.874;7.024;2023-06-22T04:09:21;9.73;;;8.65;;
30888;SDS011;51092;50.874;7.024;2023-06-22T04:10:23;9.73;;;8.73;;
30888;SDS011;51092;50.874;7.024;2023-06-22T04:11:25;10.68;;;9.07;;
30888;SDS011;51092;50.874;7.024;2023-06-22T04:12:27;9.57;;;8.50;;
30888;SDS011;51092;50.874;7.024;2023-06-22T04:13:29;9.10;;;8.20;;
30888;SDS011;51092;50.874;7.024;2023-06-22T04:14:31;20.30;;;8.95;;
30888;SDS011;51092;50.874;7.024;2023-06-22T04:15:33;12.13;;;8.10;;
30888;SDS011;51092;50.874;7.024;2023-06-22T04:16:35;9.70;;;8.80;;
30888;SDS011;51092;50.874;7.024;2023-06-22T04:17:38;10.30;;;7.95;;
30888;SDS011;51092;50.874;7.024;2023-06-22T04:18:39;9.60;;;7.68;;
30888;SDS011;51092;50.874;7.024;2023-06-22T04:19:42;9.65;;;8.27;;
30888;SDS011;51092;50.874;7.024;2023-06-22T04:20:45;10.02;;;8.13;;
30888;SDS011;51092;50.874;7.024;2023-06-22T04:21:48;8.68;;;7.80;;
30888;SDS011;51092;50.874;7.024;2023-06-22T04:22:51;9.52;;;8.02;;
30888;SDS011;51092;50.874;7.024;2023-06-22T04:23:52;10.27;;;8.43;;
30888;SDS011;51092;50.874;7.024;2023-06-22T04:24:54;10.30;;;8.60;;
30888;SDS011;51092;50.874;7.024;2023-06-22T04:25:56;10.48;;;8.15;;
30888;SDS011;51092;50.874;7.024;2023-06-22T04:26:58;9.93;;;7.88;;
30888;SDS011;51092;50.874;7.024;2023-06-22T04:28:03;14.48;;;9.05;;
30888;SDS011;51092;50.874;7.024;2023-06-22T04:29:05;9.27;;;8.13;;
30888;SDS011;51092;50.874;7.024;2023-06-22T04:30:09;9.93;;;7.95;;
30888;SDS011;51092;50.874;7.024;2023-06-22T04:31:11;9.50;;;8.05;;
30888;SDS011;51092;50.874;7.024;2023-06-22T04:32:14;10.00;;;8.63;;
30888;SDS011;51092;50.874;7.024;2023-06-22T04:33:16;9.85;;;8.85;;
30888;SDS011;51092;50.874;7.024;2023-06-22T04:34:19;10.80;;;8.48;;
30888;SDS011;51092;50.874;7.024;2023-06-22T04:35:20;9.02;;;8.07;;
30888;SDS011;51092;50.874;7.024;2023-06-22T04:36:24;9.27;;;8.20;;
30888;SDS011;51092;50.874;7.024;2023-06-22T04:37:26;9.80;;;8.80;;
30888;SDS011;51092;50.874;7.024;2023-06-22T04:38:28;10.68;;;8.90;;
30888;SDS011;51092;50.874;7.024;2023-06-22T04:39:29;11.10;;;8.82;;
30888;SDS011;51092;50.874;7.024;2023-06-22T04:40:32;10.75;;;9.13;;
30888;SDS011;51092;50.874;7.024;2023-06-22T04:41:33;10.52;;;9.43;;
30888;SDS011;51092;50.874;7.024;2023-06-22T04:42:42;9.70;;;8.90;;
30888;SDS011;51092;50.874;7.024;2023-06-22T04:43:52;11.75;;;8.45;;
30888;SDS011;51092;50.874;7.024;2023-06-22T04:45:00;10.15;;;8.88;;
30888;SDS011;51092;50.874;7.024;2023-06-22T04:46:02;9.50;;;8.52;;
30888;SDS011;51092;50.874;7.024;2023-06-22T04:47:05;9.88;;;8.80;;
30888;SDS011;51092;50.874;7.024;2023-06-22T04:48:09;9.90;;;8.90;;
30888;SDS011;51092;50.874;7.024;2023-06-22T04:49:16;10.45;;;8.77;;
30888;SDS011;51092;50.874;7.024;2023-06-22T04:50:18;9.60;;;8.63;;
30888;SDS011;51092;50.874;7.024;2023-06-22T04:51:22;9.13;;;8.15;;
30888;SDS011;51092;50.874;7.024;2023-06-22T04:52:25;12.00;;;8.30;;
30888;SDS011;51092;50.874;7.024;2023-06-22T04:53:27;9.65;;;8.75;;
30888;SDS011;51092;50.874;7.024;2023-06-22T04:54:30;9.52;;;8.63;;
30888;SDS011;51092;50.874;7.024;2023-06-22T04:55:33;9.73;;;8.73;;
30888;SDS011;51092;50.874;7.024;2023-06-22T04:56:35;11.10;;;9.23;;
30888;SDS011;51092;50.874;7.024;2023-06-22T04:57:38;10.40;;;9.40;;
30888;SDS011;51092;50.874;7.024;2023-06-22T04:58:40;9.70;;;8.70;;
30888;SDS011;51092;50.874;7.024;2023-06-22T04:59:42;8.98;;;8.15;;
30888;SDS011;51092;50.874;7.024;2023-06-22T05:00:44;9.55;;;8.65;;
30888;SDS011;51092;50.874;7.024;2023-06-22T05:01:46;10.65;;;8.65;;
30888;SDS011;51092;50.874;7.024;2023-06-22T05:02:47;9.93;;;8.65;;
30888;SDS011;51092;50.874;7.024;2023-06-22T05:03:49;9.85;;;8.85;;
30888;SDS011;51092;50.874;7.024;2023-06-22T05:04:50;12.02;;;9.30;;
30888;SDS011;51092;50.874;7.024;2023-06-22T05:05:53;8.95;;;8.15;;
30888;SDS011;51092;50.874;7.024;2023-06-22T05:06:56;10.25;;;9.23;;
30888;SDS011;51092;50.874;7.024;2023-06-22T05:08:00;9.30;;;8.50;;
30888;SDS011;51092;50.874;7.024;2023-06-22T05:09:03;10.23;;;9.23;;
30888;SDS011;51092;50.874;7.024;2023-06-22T05:10:07;10.18;;;9.07;;
30888;SDS011;51092;50.874;7.024;2023-06-22T05:11:10;10.02;;;8.45;;
30888;SDS011;51092;50.874;7.024;2023-06-22T05:12:12;9.55;;;8.55;;
30888;SDS011;51092;50.874;7.024;2023-06-22T05:13:14;8.93;;;8.02;;
30888;SDS011;51092;50.874;7.024;2023-06-22T05:14:16;9.35;;;8.38;;
30888;SDS011;51092;50.874;7.024;2023-06-22T05:15:19;10.23;;;9.02;;
30888;SDS011;51092;50.874;7.024;2023-06-22T05:16:23;9.80;;;8.80;;
30888;SDS011;51092;50.874;7.024;2023-06-22T05:17:25;10.05;;;8.88;;
30888;SDS011;51092;50.874;7.024;2023-06-22T05:18:28;9.73;;;8.60;;
30888;SDS011;51092;50.874;7.024;2023-06-22T05:19:30;9.68;;;8.45;;
30888;SDS011;51092;50.874;7.024;2023-06-22T05:20:34;10.05;;;9.05;;
30888;SDS011;51092;50.874;7.024;2023-06-22T05:21:36;9.70;;;8.60;;
30888;SDS011;51092;50.874;7.024;2023-06-22T05:22:39;8.98;;;8.07;;
30888;SDS011;51092;50.874;7.024;2023-06-22T05:23:42;10.07;;;9.07;;
30888;SDS011;51092;50.874;7.024;2023-06-22T05:24:45;8.90;;;8.10;;
30888;SDS011;51092;50.874;7.024;2023-06-22T05:25:47;9.90;;;8.80;;
30888;SDS011;51092;50.874;7.024;2023-06-22T05:26:49;11.85;;;9.35;;
30888;SDS011;51092;50.874;7.024;2023-06-22T05:27:51;10.27;;;9.20;;
30888;SDS011;51092;50.874;7.024;2023-06-22T05:28:53;9.77;;;8.80;;
30888;SDS011;51092;50.874;7.024;2023-06-22T05:29:55;11.52;;;9.20;;
30888;SDS011;51092;50.874;7.024;2023-06-22T05:30:57;9.60;;;8.60;;
30888;SDS011;51092;50.874;7.024;2023-06-22T05:32:00;8.57;;;7.57;;
30888;SDS011;51092;50.874;7.024;2023-06-22T05:33:01;8.85;;;8.05;;
30888;SDS011;51092;50.874;7.024;2023-06-22T05:34:04;9.32;;;8.52;;
30888;SDS011;51092;50.874;7.024;2023-06-22T05:35:06;11.60;;;8.63;;
30888;SDS011;51092;50.874;7.024;2023-06-22T05:36:08;12.07;;;9.02;;
30888;SDS011;51092;50.874;7.024;2023-06-22T05:37:10;9.73;;;8.82;;
30888;SDS011;51092;50.874;7.024;2023-06-22T05:38:13;9.15;;;8.35;;
30888;SDS011;51092;50.874;7.024;2023-06-22T05:39:16;9.02;;;7.93;;
30888;SDS011;51092;50.874;7.024;2023-06-22T05:40:19;9.48;;;8.50;;
30888;SDS011;51092;50.874;7.024;2023-06-22T05:41:20;10.10;;;8.63;;
30888;SDS011;51092;50.874;7.024;2023-06-22T05:42:23;9.90;;;9.00;;
30888;SDS011;51092;50.874;7.024;2023-06-22T05:43:26;9.90;;;9.00;;
30888;SDS011;51092;50.874;7.024;2023-06-22T05:44:28;9.90;;;8.90;;
30888;SDS011;51092;50.874;7.024;2023-06-22T05:45:30;10.48;;;9.27;;
30888;SDS011;51092;50.874;7.024;2023-06-22T05:46:32;10.55;;;9.55;;
30888;SDS011;51092;50.874;7.024;2023-06-22T05:47:34;9.90;;;9.00;;
30888;SDS011;51092;50.874;7.024;2023-06-22T05:48:36;11.38;;;9.10;;
30888;SDS011;51092;50.874;7.024;2023-06-22T05:49:38;10.20;;;9.15;;
30888;SDS011;51092;50.874;7.024;2023-06-22T05:50:40;10.60;;;9.52;;
30888;SDS011;51092;50.874;7.024;2023-06-22T05:51:42;9.05;;;8.15;;
30888;SDS011;51092;50.874;7.024;2023-06-22T05:52:45;10.65;;;9.20;;
30888;SDS011;51092;50.874;7.024;2023-06-22T05:53:46;12.82;;;8.93;;
30888;SDS011;51092;50.874;7.024;2023-06-22T05:54:51;9.82;;;8.57;;
30888;SDS011;51092;50.874;7.024;2023-06-22T05:55:53;11.15;;;8.52;;
30888;SDS011;51092;50.874;7.024;2023-06-22T05:56:55;9.13;;;8.25;;
30888;SDS011;51092;50.874;7.024;2023-06-22T05:57:58;9.65;;;8.65;;
30888;SDS011;51092;50.874;7.024;2023-06-22T05:58:59;12.02;;;8.27;;
30888;SDS011;51092;50.874;7.024;2023-06-22T06:00:02;9.45;;;8.55;;
30888;SDS011;51092;50.874;7.024;2023-06-22T06:01:07;9.10;;;8.18;;
30888;SDS011;51092;50.874;7.024;2023-06-22T06:02:10;9.35;;;8.45;;
30888;SDS011;51092;50.874;7.024;2023-06-22T06:03:12;8.57;;;7.22;;
30888;SDS011;51092;50.874;7.024;2023-06-22T06:04:17;10.07;;;8.23;;
30888;SDS011;51092;50.874;7.024;2023-06-22T06:05:19;9.50;;;7.70;;
30888;SDS011;51092;50.874;7.024;2023-06-22T06:06:23;9.77;;;8.05;;
30888;SDS011;51092;50.874;7.024;2023-06-22T06:07:28;8.32;;;7.45;;
30888;SDS011;51092;50.874;7.024;2023-06-22T06:08:30;12.05;;;7.50;;
30888;SDS011;51092;50.874;7.024;2023-06-22T06:09:31;10.25;;;8.05;;
30888;SDS011;51092;50.874;7.024;2023-06-22T06:10:34;9.50;;;8.15;;
30888;SDS011;51092;50.874;7.024;2023-06-22T06:11:36;9.88;;;7.20;;
30888;SDS011;51092;50.874;7.024;2023-06-22T06:12:39;11.65;;;8.13;;
30888;SDS011;51092;50.874;7.024;2023-06-22T06:13:41;13.57;;;7.57;;
30888;SDS011;51092;50.874;7.024;2023-06-22T06:14:43;11.68;;;8.20;;
30888;SDS011;51092;50.874;7.024;2023-06-22T06:15:45;11.80;;;8.30;;
30888;SDS011;51092;50.874;7.024;2023-06-22T06:16:48;9.02;;;7.78;;
30888;SDS011;51092;50.874;7.024;2023-06-22T06:17:50;9.05;;;7.85;;
30888;SDS011;51092;50.874;7.024;2023-06-22T06:18:53;9.02;;;8.13;;
30888;SDS011;51092;50.874;7.024;2023-06-22T06:19:56;11.70;;;8.75;;